createdAt,value
2023-03-15T00:00:29.657Z,62.10
2023-03-15T00:03:04.422Z,62.10
2023-03-15T00:05:37.087Z,62.10
2023-03-15T00:08:09.642Z,62.00
2023-03-15T00:10:46.118Z,62.10
2023-03-15T00:13:18.748Z,62.10
2023-03-15T00:15:54.331Z,62.20
2023-03-15T00:18:28.022Z,62.10
2023-03-15T00:21:00.589Z,62.10
2023-03-15T00:23:33.226Z,62.10
2023-03-15T00:26:05.908Z,62.10
2023-03-15T00:28:39.206Z,62.00
2023-03-15T00:31:25.643Z,62.00
2023-03-15T00:33:58.884Z,62.00
2023-03-15T00:36:33.219Z,62.00
2023-03-15T00:39:05.928Z,62.00
2023-03-15T00:41:38.838Z,62.00
2023-03-15T00:44:11.341Z,61.90
2023-03-15T00:46:43.933Z,61.90
2023-03-15T00:49:16.525Z,61.80
2023-03-15T00:51:48.980Z,61.90
2023-03-15T00:54:24.085Z,61.80
2023-03-15T00:56:56.986Z,61.90
2023-03-15T00:59:35.123Z,61.80
2023-03-15T01:02:07.886Z,61.80
2023-03-15T01:04:40.986Z,61.70
2023-03-15T01:07:13.586Z,61.70
2023-03-15T01:09:48.438Z,61.70
2023-03-15T01:12:21.198Z,61.70
2023-03-15T01:14:53.880Z,61.60
2023-03-15T01:17:28.324Z,61.60
2023-03-15T01:20:01.128Z,61.60
2023-03-15T01:22:33.856Z,61.50
2023-03-15T01:25:07.195Z,61.50
2023-03-15T01:27:40.076Z,61.40
2023-03-15T01:30:12.981Z,61.30
2023-03-15T01:32:45.697Z,61.30
2023-03-15T01:35:18.292Z,61.20
2023-03-15T01:37:51.569Z,61.10
2023-03-15T01:40:24.578Z,61.00
2023-03-15T01:43:07.036Z,60.90
2023-03-15T01:46:02.451Z,60.70
2023-03-15T01:48:44.922Z,60.80
2023-03-15T01:51:27.680Z,60.40
2023-03-15T01:54:07.718Z,60.20
2023-03-15T01:56:57.054Z,60.10
2023-03-15T01:59:33.521Z,60.00
2023-03-15T02:02:08.108Z,59.70
2023-03-15T02:05:12.212Z,59.50
2023-03-15T02:07:54.830Z,59.40
2023-03-15T02:10:42.717Z,59.10
2023-03-15T02:13:20.021Z,59.50
2023-03-15T02:15:53.793Z,58.40
2023-03-15T02:18:32.181Z,58.10
2023-03-15T02:21:23.284Z,57.80
2023-03-15T02:24:16.046Z,57.60
2023-03-15T02:26:53.525Z,57.20
2023-03-15T02:29:29.028Z,56.90
2023-03-15T02:32:04.805Z,56.70
2023-03-15T02:34:37.435Z,56.30
2023-03-15T02:37:10.211Z,56.20
2023-03-15T02:39:42.826Z,56.10
2023-03-15T02:42:19.502Z,56.00
2023-03-15T02:44:53.567Z,55.60
2023-03-15T02:47:32.753Z,55.30
2023-03-15T02:50:07.961Z,55.10
2023-03-15T02:52:40.559Z,55.00
2023-03-15T02:55:13.165Z,54.80
2023-03-15T02:57:46.276Z,54.60
2023-03-15T03:00:19.242Z,54.50
2023-03-15T03:02:52.227Z,55.20
2023-03-15T03:05:24.919Z,54.30
2023-03-15T03:07:57.563Z,54.10
2023-03-15T03:10:30.593Z,54.10
2023-03-15T03:13:04.603Z,54.10
2023-03-15T03:15:40.854Z,54.00
2023-03-15T03:18:14.159Z,54.00
2023-03-15T03:20:46.611Z,53.90
2023-03-15T03:23:19.242Z,53.90
2023-03-15T03:25:54.221Z,53.70
2023-03-15T03:28:30.145Z,53.80
2023-03-15T03:31:03.681Z,53.90
2023-03-15T03:33:36.409Z,53.90
2023-03-15T03:36:09.248Z,53.90
2023-03-15T03:38:44.412Z,54.00
2023-03-15T03:41:17.036Z,54.00
2023-03-15T03:43:49.950Z,54.10
2023-03-15T03:46:23.030Z,54.20
2023-03-15T03:48:58.421Z,54.20
2023-03-15T03:51:31.157Z,54.30
2023-03-15T03:54:05.860Z,54.30
2023-03-15T03:56:39.964Z,54.40
2023-03-15T03:59:12.765Z,54.30
2023-03-15T04:01:55.040Z,54.40
2023-03-15T04:04:27.981Z,54.40
2023-03-15T04:07:00.942Z,54.50
2023-03-15T04:09:42.114Z,54.60
2023-03-15T04:12:14.749Z,54.60
2023-03-15T04:14:51.482Z,54.60
2023-03-15T04:17:26.832Z,54.70
2023-03-15T04:20:02.199Z,54.60
2023-03-15T04:22:36.874Z,54.70
2023-03-15T04:25:28.421Z,54.70
2023-03-15T04:28:26.936Z,54.70
2023-03-15T04:31:29.392Z,54.70
2023-03-15T04:34:17.036Z,54.80
2023-03-15T04:37:05.965Z,54.80
2023-03-15T04:39:58.600Z,54.80
2023-03-15T04:42:49.362Z,54.90
2023-03-15T04:45:34.984Z,54.90
2023-03-15T04:48:26.005Z,54.90
2023-03-15T04:51:24.997Z,54.80
2023-03-15T04:54:18.310Z,55.00
2023-03-15T04:57:09.191Z,54.90
2023-03-15T04:59:51.772Z,54.90
2023-03-15T05:02:24.359Z,54.90
2023-03-15T05:05:26.325Z,54.90
2023-03-15T05:08:08.610Z,55.00
2023-03-15T05:10:59.500Z,54.90
2023-03-15T05:13:41.923Z,55.00
2023-03-15T05:16:32.835Z,54.90
2023-03-15T05:19:14.950Z,54.90
2023-03-15T05:22:04.410Z,54.90
2023-03-15T05:25:10.845Z,55.00
2023-03-15T05:28:05.140Z,55.00
2023-03-15T05:31:02.704Z,55.10
2023-03-15T05:34:01.439Z,55.10
2023-03-15T05:36:57.420Z,55.10
2023-03-15T05:40:08.498Z,55.00
2023-03-15T05:43:04.429Z,54.90
2023-03-15T05:45:51.898Z,54.90
2023-03-15T05:48:54.076Z,54.80
2023-03-15T05:51:55.664Z,54.70
2023-03-15T05:54:40.996Z,54.50
2023-03-15T05:57:31.956Z,54.20
2023-03-15T06:00:23.650Z,54.10
2023-03-15T06:03:02.485Z,53.90
2023-03-15T06:05:47.059Z,53.80
2023-03-15T06:08:24.668Z,53.70
2023-03-15T06:10:57.468Z,53.40
2023-03-15T06:13:30.819Z,53.30
2023-03-15T06:16:05.882Z,53.20
2023-03-15T06:18:41.559Z,53.00
2023-03-15T06:21:14.454Z,52.70
2023-03-15T06:23:47.328Z,52.50
2023-03-15T06:26:20.207Z,52.30
2023-03-15T06:28:54.117Z,52.10
2023-03-15T06:31:26.862Z,51.90
2023-03-15T06:34:07.298Z,51.80
2023-03-15T06:36:42.622Z,51.50
2023-03-15T06:39:15.539Z,51.40
2023-03-15T06:41:48.232Z,51.40
2023-03-15T06:44:25.624Z,51.20
2023-03-15T06:47:03.060Z,51.10
2023-03-15T06:49:35.811Z,51.00
2023-03-15T06:52:08.654Z,51.00
2023-03-15T06:54:41.294Z,51.00
2023-03-15T06:57:13.922Z,50.90
2023-03-15T06:59:46.476Z,50.80
2023-03-15T07:02:19.642Z,50.80
2023-03-15T07:04:52.381Z,50.70
2023-03-15T07:07:24.977Z,50.70
2023-03-15T07:09:57.598Z,50.70
2023-03-15T07:12:30.196Z,50.70
2023-03-15T07:15:05.067Z,50.60
2023-03-15T07:17:37.695Z,50.40
2023-03-15T07:20:11.178Z,50.50
2023-03-15T07:22:45.853Z,50.50
2023-03-15T07:25:24.149Z,50.50
2023-03-15T07:27:56.782Z,50.40
2023-03-15T07:30:29.542Z,50.20
2023-03-15T07:33:02.343Z,50.10
2023-03-15T07:35:34.972Z,50.10
2023-03-15T07:38:07.573Z,50.00
2023-03-15T07:40:40.025Z,50.20
2023-03-15T07:43:12.764Z,50.20
2023-03-15T07:45:45.553Z,50.30
2023-03-15T07:48:18.208Z,50.30
2023-03-15T07:50:50.864Z,50.20
2023-03-15T07:53:23.452Z,49.80
2023-03-15T07:55:57.149Z,49.70
2023-03-15T07:58:29.926Z,49.70
2023-03-15T08:01:02.455Z,49.90
2023-03-15T08:03:35.016Z,49.70
2023-03-15T08:06:07.990Z,49.60
2023-03-15T08:08:40.799Z,49.30
2023-03-15T08:11:13.513Z,49.50
2023-03-15T08:13:46.034Z,49.30
2023-03-15T08:16:18.680Z,49.30
2023-03-15T08:18:51.330Z,49.20
2023-03-15T08:21:23.884Z,49.10
2023-03-15T08:23:56.446Z,49.00
2023-03-15T08:26:29.022Z,49.00
2023-03-15T08:29:01.675Z,49.00
2023-03-15T08:31:34.305Z,48.70
2023-03-15T08:34:06.938Z,48.60
2023-03-15T08:36:39.541Z,48.40
2023-03-15T08:39:12.134Z,48.00
2023-03-15T08:41:45.850Z,47.80
2023-03-15T08:44:18.640Z,47.80
2023-03-15T08:46:51.233Z,47.80
2023-03-15T08:49:23.900Z,47.70
2023-03-15T08:51:56.506Z,47.60
2023-03-15T08:54:29.077Z,47.30
2023-03-15T08:57:03.392Z,47.10
2023-03-15T08:59:35.935Z,46.90
2023-03-15T09:02:11.789Z,46.80
2023-03-15T09:04:44.326Z,46.60
2023-03-15T09:07:17.012Z,46.40
2023-03-15T09:09:49.599Z,46.20
2023-03-15T09:12:22.363Z,46.00
2023-03-15T09:14:54.958Z,45.90
2023-03-15T09:17:27.898Z,45.70
2023-03-15T09:20:00.469Z,45.60
2023-03-15T09:22:39.018Z,45.50
2023-03-15T09:25:12.286Z,45.10
2023-03-15T09:27:44.838Z,44.90
2023-03-15T09:30:18.173Z,44.80
2023-03-15T09:32:51.586Z,44.40
2023-03-15T09:35:24.193Z,44.40
2023-03-15T09:37:56.969Z,44.40
2023-03-15T09:40:33.459Z,44.00
2023-03-15T09:43:12.832Z,43.70
2023-03-15T09:46:13.676Z,43.10
2023-03-15T09:49:28.614Z,42.80
2023-03-15T09:52:12.611Z,42.50
2023-03-15T09:54:47.429Z,42.30
2023-03-15T09:57:25.370Z,42.10
2023-03-15T09:59:59.562Z,41.90
2023-03-15T10:02:32.464Z,41.80
2023-03-15T10:05:12.579Z,41.80
2023-03-15T10:07:45.390Z,41.80
2023-03-15T10:10:41.321Z,41.60
2023-03-15T10:13:13.811Z,41.70
2023-03-15T10:16:26.047Z,42.00
2023-03-15T10:19:07.151Z,42.00
2023-03-15T10:21:58.712Z,42.00
2023-03-15T10:25:05.407Z,41.90
2023-03-15T10:27:42.690Z,41.80
2023-03-15T10:30:31.197Z,41.80
2023-03-15T10:33:28.502Z,41.60
2023-03-15T10:36:11.425Z,41.70
2023-03-15T10:38:45.442Z,41.70
2023-03-15T10:41:45.084Z,41.30
2023-03-15T10:44:24.656Z,41.00
2023-03-15T10:47:23.006Z,41.00
2023-03-15T10:49:58.811Z,41.10
2023-03-15T10:52:46.531Z,41.10
2023-03-15T10:55:29.136Z,41.00
2023-03-15T10:58:27.750Z,41.10
2023-03-15T11:01:10.003Z,40.70
2023-03-15T11:03:44.277Z,40.90
2023-03-15T11:06:22.979Z,40.70
2023-03-15T11:09:10.361Z,40.70
2023-03-15T11:12:02.751Z,41.00
2023-03-15T11:14:38.470Z,41.20
2023-03-15T11:17:36.420Z,41.80
2023-03-15T11:20:31.228Z,42.60
2023-03-15T11:23:26.466Z,43.20
2023-03-15T11:25:59.249Z,43.20
2023-03-15T11:28:33.165Z,43.20
2023-03-15T11:31:06.680Z,43.40
2023-03-15T11:33:47.744Z,43.20
2023-03-15T11:36:23.944Z,43.20
2023-03-15T11:39:36.714Z,43.00
2023-03-15T11:42:32.136Z,43.10
2023-03-15T11:45:23.801Z,43.10
2023-03-15T11:48:03.423Z,43.00
2023-03-15T11:50:35.921Z,42.80
2023-03-15T11:53:14.331Z,42.60
2023-03-15T11:55:54.691Z,42.60
2023-03-15T11:58:35.454Z,42.80
2023-03-15T12:01:11.631Z,43.00
2023-03-15T12:03:45.615Z,43.20
2023-03-15T12:06:18.143Z,43.50
2023-03-15T12:08:55.536Z,43.50
2023-03-15T12:11:28.160Z,43.80
2023-03-15T12:14:00.637Z,44.20
2023-03-15T12:16:41.576Z,44.40
2023-03-15T12:19:19.627Z,44.40
2023-03-15T12:21:58.252Z,44.50
2023-03-15T12:24:37.329Z,44.70
2023-03-15T12:27:18.521Z,44.90
2023-03-15T12:30:01.136Z,45.10
2023-03-15T12:32:46.863Z,45.00
2023-03-15T12:35:21.883Z,45.10
2023-03-15T12:37:55.740Z,45.30
2023-03-15T12:41:00.952Z,45.30
2023-03-15T12:43:41.876Z,45.10
2023-03-15T12:46:39.230Z,44.60
2023-03-15T12:49:12.579Z,44.50
2023-03-15T12:51:59.327Z,44.30
2023-03-15T12:54:43.626Z,44.40
2023-03-15T12:57:40.220Z,44.20
2023-03-15T13:00:22.759Z,44.50
2023-03-15T13:03:17.221Z,44.60
2023-03-15T13:06:26.969Z,44.70
2023-03-15T13:09:15.092Z,44.60
2023-03-15T13:12:15.440Z,44.60
2023-03-15T13:15:03.185Z,44.80
2023-03-15T13:17:50.542Z,45.10
2023-03-15T13:21:02.261Z,45.10
2023-03-15T13:23:35.339Z,45.10
2023-03-15T13:26:26.470Z,44.90
2023-03-15T13:29:07.584Z,44.80
2023-03-15T13:31:40.313Z,44.90
2023-03-15T13:34:15.656Z,45.00
2023-03-15T13:36:59.285Z,45.10
2023-03-15T13:39:37.541Z,45.00
2023-03-15T13:42:24.447Z,46.20
2023-03-15T13:45:07.520Z,45.00
2023-03-15T13:47:46.127Z,45.10
2023-03-15T13:50:21.199Z,45.10
2023-03-15T13:52:56.224Z,45.10
2023-03-15T13:55:34.695Z,45.10
2023-03-15T13:58:09.585Z,45.20
2023-03-15T14:00:42.091Z,45.20
2023-03-15T14:03:22.628Z,45.20
2023-03-15T14:05:57.284Z,45.20
2023-03-15T14:08:36.120Z,44.90
2023-03-15T14:11:18.135Z,44.80
2023-03-15T14:13:59.750Z,43.90
2023-03-15T14:16:57.285Z,43.40
2023-03-15T14:19:37.171Z,43.70
2023-03-15T14:22:19.358Z,43.90
2023-03-15T14:24:53.225Z,43.90
2023-03-15T14:27:30.849Z,44.00
2023-03-15T14:30:04.285Z,44.20
2023-03-15T14:32:38.998Z,44.20
2023-03-15T14:35:44.308Z,44.00
2023-03-15T14:38:22.996Z,44.50
2023-03-15T14:41:17.723Z,44.80
2023-03-15T14:43:50.235Z,45.20
2023-03-15T14:46:22.893Z,45.70
2023-03-15T14:48:55.637Z,46.00
2023-03-15T14:51:30.073Z,46.00
2023-03-15T14:54:02.796Z,46.10
2023-03-15T14:56:37.364Z,46.30
2023-03-15T14:59:13.545Z,46.30
2023-03-15T15:01:51.878Z,46.50
2023-03-15T15:04:27.913Z,46.50
2023-03-15T15:07:03.306Z,46.60
2023-03-15T15:09:38.459Z,47.70
2023-03-15T15:12:12.745Z,46.80
2023-03-15T15:14:45.329Z,47.10
2023-03-15T15:17:17.859Z,47.10
2023-03-15T15:19:50.480Z,47.10
2023-03-15T15:22:48.490Z,46.70
2023-03-15T15:25:24.415Z,46.60
2023-03-15T15:27:57.678Z,46.80
2023-03-15T15:30:31.604Z,46.90
2023-03-15T15:33:04.349Z,47.00
2023-03-15T15:35:37.724Z,46.90
2023-03-15T15:38:12.363Z,46.90
2023-03-15T15:40:44.948Z,46.90
2023-03-15T15:43:19.228Z,46.70
2023-03-15T15:45:52.027Z,46.40
2023-03-15T15:48:24.647Z,46.40
2023-03-15T15:50:57.823Z,46.20
2023-03-15T15:53:31.903Z,46.00
2023-03-15T15:56:04.775Z,46.00
2023-03-15T15:58:37.486Z,45.90
2023-03-15T16:01:19.147Z,45.90
2023-03-15T16:03:51.729Z,45.40
2023-03-15T16:06:24.431Z,45.10
2023-03-15T16:08:57.301Z,45.10
2023-03-15T16:11:30.785Z,44.80
2023-03-15T16:14:03.480Z,44.50
2023-03-15T16:16:36.236Z,44.30
2023-03-15T16:19:09.222Z,44.30
2023-03-15T16:21:48.823Z,44.10
2023-03-15T16:24:36.267Z,43.80
2023-03-15T16:27:09.228Z,43.80
2023-03-15T16:29:47.580Z,43.80
2023-03-15T16:32:33.352Z,43.50
2023-03-15T16:35:17.630Z,43.60
2023-03-15T16:37:56.498Z,43.60
2023-03-15T16:40:32.483Z,43.60
2023-03-15T16:43:06.619Z,43.60
2023-03-15T16:45:39.431Z,43.40
2023-03-15T16:48:12.377Z,43.40
2023-03-15T16:50:45.715Z,43.20
2023-03-15T16:53:19.495Z,43.20
2023-03-15T16:55:52.112Z,43.40
2023-03-15T16:58:25.029Z,43.20
2023-03-15T17:00:57.645Z,43.00
2023-03-15T17:03:31.484Z,42.90
2023-03-15T17:06:04.159Z,43.10
2023-03-15T17:08:37.283Z,42.80
2023-03-15T17:11:10.155Z,42.80
2023-03-15T17:13:42.711Z,43.10
2023-03-15T17:16:16.979Z,42.40
2023-03-15T17:18:49.880Z,42.30
2023-03-15T17:21:24.619Z,42.40
2023-03-15T17:23:57.234Z,42.30
2023-03-15T17:26:31.895Z,41.90
2023-03-15T17:29:05.806Z,41.60
2023-03-15T17:31:44.920Z,41.60
2023-03-15T17:34:22.803Z,41.60
2023-03-15T17:36:56.308Z,41.30
2023-03-15T17:39:28.783Z,41.20
2023-03-15T17:42:01.425Z,41.10
2023-03-15T17:44:34.026Z,41.10
2023-03-15T17:47:09.454Z,41.10
2023-03-15T17:49:42.099Z,40.70
2023-03-15T17:52:16.271Z,40.70
2023-03-15T17:54:48.774Z,40.60
2023-03-15T17:57:21.616Z,40.40
2023-03-15T17:59:54.113Z,40.30
2023-03-15T18:02:27.199Z,41.00
2023-03-15T18:04:59.623Z,40.20
2023-03-15T18:07:32.162Z,40.50
2023-03-15T18:10:05.263Z,40.00
2023-03-15T18:12:37.661Z,40.10
2023-03-15T18:15:16.793Z,40.40
2023-03-15T18:17:49.466Z,39.70
2023-03-15T18:20:29.189Z,39.70
2023-03-15T18:23:04.243Z,39.50
2023-03-15T18:25:36.964Z,39.60
2023-03-15T18:28:09.506Z,39.50
2023-03-15T18:30:42.158Z,39.40
2023-03-15T18:33:16.085Z,39.50
2023-03-15T18:35:48.602Z,39.70
2023-03-15T18:38:21.346Z,39.90
2023-03-15T18:40:55.803Z,39.90
2023-03-15T18:43:28.461Z,39.70
2023-03-15T18:46:01.177Z,39.80
2023-03-15T18:48:40.459Z,40.00
2023-03-15T18:51:15.435Z,39.70
2023-03-15T18:53:47.954Z,40.00
2023-03-15T18:56:31.094Z,40.30
2023-03-15T18:59:04.250Z,40.40
2023-03-15T19:01:36.704Z,40.50
2023-03-15T19:04:09.777Z,40.80
2023-03-15T19:06:42.388Z,40.60
2023-03-15T19:09:15.536Z,40.70
2023-03-15T19:11:47.937Z,40.80
2023-03-15T19:14:20.431Z,41.10
2023-03-15T19:16:58.362Z,41.20
2023-03-15T19:19:30.982Z,41.30
2023-03-15T19:22:03.665Z,41.60
2023-03-15T19:24:36.580Z,41.90
2023-03-15T19:27:09.227Z,42.00
2023-03-15T19:29:41.779Z,42.20
2023-03-15T19:32:14.301Z,42.40
2023-03-15T19:34:47.224Z,42.80
2023-03-15T19:37:19.821Z,42.90
2023-03-15T19:39:52.307Z,43.10
2023-03-15T19:42:25.148Z,43.40
2023-03-15T19:44:57.728Z,43.50
2023-03-15T19:47:30.346Z,43.50
2023-03-15T19:50:04.957Z,43.70
2023-03-15T19:52:46.184Z,43.80
2023-03-15T19:55:20.984Z,43.80
2023-03-15T19:57:54.327Z,43.90
2023-03-15T20:00:27.171Z,43.90
2023-03-15T20:03:00.150Z,43.90
2023-03-15T20:05:32.808Z,43.90
2023-03-15T20:08:05.635Z,43.90
2023-03-15T20:10:38.264Z,44.00
2023-03-15T20:13:11.621Z,43.90
2023-03-15T20:15:44.435Z,43.90
2023-03-15T20:18:18.590Z,43.80
2023-03-15T20:20:52.039Z,43.90
2023-03-15T20:23:24.875Z,43.80
2023-03-15T20:26:05.672Z,43.70
2023-03-15T20:28:39.260Z,43.60
2023-03-15T20:31:15.893Z,43.50
2023-03-15T20:33:51.001Z,43.50
2023-03-15T20:36:24.284Z,43.60
2023-03-15T20:38:56.712Z,43.50
2023-03-15T20:41:29.375Z,43.70
2023-03-15T20:44:02.220Z,43.50
2023-03-15T20:46:35.194Z,43.20
2023-03-15T20:49:07.832Z,43.30
2023-03-15T20:51:40.524Z,43.40
2023-03-15T20:54:16.035Z,43.30
2023-03-15T20:57:05.482Z,43.20
2023-03-15T20:59:45.722Z,43.20
2023-03-15T21:02:19.659Z,43.30
2023-03-15T21:04:52.589Z,43.30
2023-03-15T21:07:25.198Z,43.50
2023-03-15T21:09:57.739Z,43.60
2023-03-15T21:12:30.793Z,43.60
2023-03-15T21:15:03.789Z,43.70
2023-03-15T21:17:36.872Z,43.80
2023-03-15T21:20:13.694Z,43.80
2023-03-15T21:22:48.138Z,43.80
2023-03-15T21:25:22.073Z,43.60
2023-03-15T21:27:55.215Z,43.50
2023-03-15T21:30:28.540Z,43.50
2023-03-15T21:33:02.336Z,43.70
2023-03-15T21:35:35.341Z,43.70
2023-03-15T21:38:08.989Z,43.90
2023-03-15T21:40:52.734Z,44.00
2023-03-15T21:43:30.985Z,44.10
2023-03-15T21:46:14.321Z,44.10
2023-03-15T21:48:47.349Z,44.30
2023-03-15T21:51:20.104Z,44.50
2023-03-15T21:53:54.225Z,44.50
2023-03-15T21:56:27.690Z,44.80
2023-03-15T21:59:00.230Z,44.90
2023-03-15T22:01:32.804Z,45.00
2023-03-15T22:04:05.450Z,45.00
2023-03-15T22:06:38.574Z,45.10
2023-03-15T22:09:12.697Z,45.10
2023-03-15T22:11:45.384Z,45.20
2023-03-15T22:14:18.514Z,45.30
2023-03-15T22:16:51.811Z,45.30
2023-03-15T22:19:24.520Z,45.40
2023-03-15T22:21:57.880Z,45.40
2023-03-15T22:24:30.590Z,45.50
2023-03-15T22:27:03.267Z,45.60
2023-03-15T22:29:35.871Z,45.60
2023-03-15T22:32:08.665Z,45.60
2023-03-15T22:34:41.247Z,45.70
2023-03-15T22:37:13.752Z,45.80
2023-03-15T22:39:46.373Z,45.80
2023-03-15T22:42:18.985Z,45.90
2023-03-15T22:44:51.659Z,45.90
2023-03-15T22:47:24.442Z,45.90
2023-03-15T22:49:59.781Z,46.00
2023-03-15T22:52:32.392Z,46.00
2023-03-15T22:55:05.765Z,46.00
2023-03-15T22:57:38.490Z,46.00
2023-03-15T23:00:14.239Z,46.10
2023-03-15T23:02:47.036Z,46.20
2023-03-15T23:05:19.883Z,46.30
2023-03-15T23:07:52.422Z,46.30
2023-03-15T23:10:25.360Z,46.30
2023-03-15T23:12:59.282Z,46.30
2023-03-15T23:15:32.374Z,46.40
2023-03-15T23:18:05.948Z,46.40
2023-03-15T23:20:38.798Z,46.40
2023-03-15T23:23:11.469Z,46.50
2023-03-15T23:25:46.134Z,46.50
2023-03-15T23:28:21.122Z,46.40
2023-03-15T23:30:53.807Z,46.50
2023-03-15T23:33:26.389Z,46.50
2023-03-15T23:35:59.079Z,46.60
2023-03-15T23:38:34.839Z,47.50
2023-03-15T23:41:07.642Z,46.60
2023-03-15T23:43:40.189Z,46.60
2023-03-15T23:46:14.759Z,46.60
2023-03-15T23:48:47.377Z,46.70
2023-03-15T23:51:27.704Z,46.70
2023-03-15T23:54:02.132Z,46.70
2023-03-15T23:56:34.756Z,46.80
2023-03-15T23:59:07.386Z,46.80
